< < Back
Terminal Aerodrome Forecast


Current Version              Previous Versions:   1  2  3  4  5  6  7  8  9  

Terminal Aerodrome Forecast

277
FTUS42 KFFC 232300
TAFCSG
TAF
KCSG 232335Z 2400/2424 30004KT P6SM SKC
     FM240200 VRB03KT P6SM SKC
     FM241500 10008KT P6SM SKC
     FM241600 13008KT P6SM FEW040
     FM241900 15007KT P6SM SCT060=



Latest METAR

254
SAUS70 KWBC 241400
MTRCSG
METAR KCSG 241351Z 09005KT 10SM SCT070 18/06 A3002 RMK AO2 SLP161
T01830056


USA.gov is the U.S. government's official web portal to all federal, state and local government web resources and services.